createdAt,value
2022-12-23T00:00:55.645Z,1.83
2022-12-23T00:03:29.813Z,1.60
2022-12-23T00:05:57.220Z,3.13
2022-12-23T00:08:24.702Z,3.47
2022-12-23T00:10:59.590Z,3.55
2022-12-23T00:13:45.291Z,1.67
2022-12-23T00:16:20.601Z,3.50
2022-12-23T00:18:54.902Z,4.03
2022-12-23T00:21:28.588Z,2.45
2022-12-23T00:23:55.671Z,3.17
2022-12-23T00:26:33.781Z,5.20
2022-12-23T00:31:27.983Z,2.67
2022-12-23T00:34:01.592Z,3.20
2022-12-23T00:36:29.629Z,3.40
2022-12-23T00:39:22.593Z,2.05
2022-12-23T00:42:08.244Z,2.10
2022-12-23T00:44:41.596Z,5.20
2022-12-23T00:47:28.648Z,4.00
2022-12-23T00:50:02.588Z,5.07
2022-12-23T00:52:29.702Z,10.82
2022-12-23T00:55:03.714Z,2.67
2022-12-23T00:57:30.814Z,7.90
2022-12-23T00:59:57.897Z,5.13
2022-12-23T01:02:50.787Z,3.30
2022-12-23T01:05:36.683Z,4.63
2022-12-23T01:08:11.731Z,2.42
2022-12-23T01:10:40.072Z,3.50
2022-12-23T01:13:07.533Z,4.82
2022-12-23T01:15:41.597Z,4.70
2022-12-23T01:18:15.643Z,5.03
2022-12-23T01:20:49.585Z,6.18
2022-12-23T01:23:16.739Z,6.13
2022-12-23T01:25:44.048Z,6.65
2022-12-23T01:28:17.571Z,4.20
2022-12-23T01:30:44.738Z,6.50
2022-12-23T01:33:18.618Z,5.22
2022-12-23T01:35:45.760Z,5.47
2022-12-23T01:38:12.893Z,6.60
2022-12-23T01:40:50.589Z,7.03
2022-12-23T01:43:18.245Z,4.70
2022-12-23T01:45:45.735Z,6.60
2022-12-23T01:48:21.633Z,9.40
2022-12-23T01:51:03.719Z,9.73
2022-12-23T01:53:32.156Z,9.43
2022-12-23T01:56:01.758Z,10.70
2022-12-23T01:58:35.602Z,13.02
2022-12-23T02:01:21.928Z,10.20
2022-12-23T02:03:56.666Z,11.80
2022-12-23T02:06:47.684Z,10.05
2022-12-23T02:09:25.617Z,14.15
2022-12-23T02:12:11.624Z,13.95
2022-12-23T02:15:22.772Z,14.15
2022-12-23T02:18:18.618Z,13.43
2022-12-23T02:21:10.607Z,16.02
2022-12-23T02:24:10.256Z,10.45
2022-12-23T02:27:02.727Z,8.43
2022-12-23T02:29:48.669Z,7.50
2022-12-23T02:32:22.601Z,6.70
2022-12-23T02:34:49.666Z,7.95
2022-12-23T02:37:23.597Z,6.28
2022-12-23T02:40:07.361Z,4.80
2022-12-23T02:42:45.610Z,2.42
2022-12-23T02:47:57.609Z,4.50
2022-12-23T02:50:26.812Z,2.05
2022-12-23T02:53:00.714Z,2.50
2022-12-23T02:55:30.648Z,2.22
2022-12-23T02:57:59.466Z,3.17
2022-12-23T03:00:40.665Z,2.22
2022-12-23T03:03:07.840Z,1.13
2022-12-23T03:05:40.569Z,3.33
2022-12-23T03:08:19.622Z,2.88
2022-12-23T03:11:01.369Z,4.10
2022-12-23T03:13:53.620Z,3.97
2022-12-23T03:16:42.614Z,1.52
2022-12-23T03:19:16.730Z,1.95
2022-12-23T03:21:51.425Z,2.03
2022-12-23T03:24:44.768Z,1.27
2022-12-23T03:27:23.039Z,1.17
2022-12-23T03:32:25.268Z,4.15
2022-12-23T03:34:54.260Z,0.93
2022-12-23T03:37:28.604Z,1.10
2022-12-23T03:40:06.643Z,0.93
2022-12-23T03:42:35.859Z,1.30
2022-12-23T03:45:37.669Z,1.38
2022-12-23T03:48:01.505Z,1.15
2022-12-23T03:50:35.636Z,1.77
2022-12-23T03:53:06.992Z,1.60
2022-12-23T03:55:42.753Z,1.38
2022-12-23T03:58:18.124Z,3.42
2022-12-23T04:00:55.706Z,2.63
2022-12-23T04:03:25.960Z,2.42
2022-12-23T04:06:04.633Z,3.30
2022-12-23T04:08:34.395Z,1.33
2022-12-23T04:11:08.849Z,3.60
2022-12-23T04:13:36.007Z,2.22
2022-12-23T04:16:03.607Z,1.60
2022-12-23T04:18:37.645Z,3.67
2022-12-23T04:21:04.807Z,3.70
2022-12-23T04:23:38.787Z,1.92
2022-12-23T04:26:05.899Z,1.77
2022-12-23T04:28:32.980Z,2.17
2022-12-23T04:31:06.722Z,1.95
2022-12-23T04:33:33.836Z,3.83
2022-12-23T04:36:07.619Z,4.68
2022-12-23T04:38:34.722Z,2.75
2022-12-23T04:41:08.782Z,2.28
2022-12-23T04:43:35.885Z,2.83
2022-12-23T04:46:02.988Z,4.85
2022-12-23T04:48:36.688Z,5.60
2022-12-23T04:51:04.169Z,4.70
2022-12-23T04:53:37.787Z,4.55
2022-12-23T04:56:04.993Z,2.55
2022-12-23T04:58:32.146Z,1.65
2022-12-23T05:01:15.879Z,2.10
2022-12-23T05:03:43.374Z,1.98
2022-12-23T05:06:10.620Z,3.75
2022-12-23T05:08:44.631Z,2.53
2022-12-23T05:11:11.710Z,2.38
2022-12-23T05:13:45.766Z,1.95
2022-12-23T05:16:12.958Z,2.90
2022-12-23T05:18:52.655Z,3.17
2022-12-23T05:21:26.809Z,1.40
2022-12-23T05:23:53.890Z,3.00
2022-12-23T05:26:21.160Z,1.40
2022-12-23T05:28:54.631Z,5.82
2022-12-23T05:31:28.700Z,3.53
2022-12-23T05:33:58.373Z,2.78
2022-12-23T05:36:34.790Z,2.03
2022-12-23T05:39:01.931Z,1.38
2022-12-23T05:41:29.053Z,3.35
2022-12-23T05:44:02.867Z,5.65
2022-12-23T05:46:30.202Z,2.22
2022-12-23T05:48:57.596Z,1.88
2022-12-23T05:53:58.744Z,2.78
2022-12-23T05:56:32.647Z,4.40
2022-12-23T05:59:00.400Z,1.40
2022-12-23T06:01:33.987Z,1.63
2022-12-23T06:04:01.312Z,1.63
2022-12-23T06:06:28.775Z,1.98
2022-12-23T06:09:02.792Z,4.22
2022-12-23T06:11:29.977Z,1.75
2022-12-23T06:13:57.196Z,1.55
2022-12-23T06:16:30.717Z,1.02
2022-12-23T06:19:04.695Z,1.40
2022-12-23T06:21:38.697Z,3.00
2022-12-23T06:24:06.047Z,1.42
2022-12-23T06:26:33.912Z,1.88
2022-12-23T06:29:07.665Z,3.65
2022-12-23T06:31:34.816Z,1.92
2022-12-23T06:34:08.797Z,3.70
2022-12-23T06:36:35.877Z,1.83
2022-12-23T06:39:02.960Z,2.28
2022-12-23T06:41:36.832Z,2.95
2022-12-23T06:44:04.033Z,2.83
2022-12-23T06:46:31.262Z,6.57
2022-12-23T06:49:10.935Z,2.35
2022-12-23T06:51:40.068Z,3.63
2022-12-23T06:54:13.805Z,3.53
2022-12-23T06:56:40.925Z,3.20
2022-12-23T06:59:08.150Z,2.45
2022-12-23T07:01:41.966Z,3.65
2022-12-23T07:04:10.277Z,2.78
2022-12-23T07:06:37.686Z,4.22
2022-12-23T07:09:11.668Z,2.30
2022-12-23T07:11:38.818Z,1.65
2022-12-23T07:14:12.850Z,3.13
2022-12-23T07:16:40.039Z,2.63
2022-12-23T07:19:27.837Z,4.75
2022-12-23T07:22:01.885Z,3.10
2022-12-23T07:24:42.674Z,3.28
2022-12-23T07:27:16.844Z,2.63
2022-12-23T07:29:43.935Z,3.38
2022-12-23T07:32:11.138Z,13.85
2022-12-23T07:34:44.677Z,3.40
2022-12-23T07:37:11.755Z,1.10
2022-12-23T07:39:45.728Z,4.07
2022-12-23T07:45:06.799Z,3.33
2022-12-23T07:47:33.952Z,1.63
2022-12-23T07:50:01.093Z,2.58
2022-12-23T07:52:35.658Z,4.68
2022-12-23T07:55:02.731Z,3.42
2022-12-23T07:57:36.696Z,2.72
2022-12-23T08:00:07.288Z,2.47
2022-12-23T08:02:34.533Z,1.67
2022-12-23T08:05:08.720Z,1.58
2022-12-23T08:07:35.865Z,2.63
2022-12-23T08:10:09.896Z,5.40
2022-12-23T08:12:37.024Z,1.50
2022-12-23T08:15:04.287Z,4.43
2022-12-23T08:17:37.685Z,2.45
2022-12-23T08:20:11.815Z,3.30
2022-12-23T08:22:45.705Z,2.78
2022-12-23T08:25:12.888Z,4.85
2022-12-23T08:27:46.692Z,1.65
2022-12-23T08:30:13.948Z,2.45
2022-12-23T08:32:47.838Z,3.05
2022-12-23T08:35:15.009Z,1.67
2022-12-23T08:37:42.102Z,1.65
2022-12-23T08:40:16.826Z,4.13
2022-12-23T08:42:43.907Z,1.67
2022-12-23T08:45:17.851Z,2.35
2022-12-23T08:47:44.939Z,1.75
2022-12-23T08:50:12.149Z,2.10
2022-12-23T08:52:45.705Z,2.13
2022-12-23T08:55:12.814Z,3.30
2022-12-23T08:57:46.705Z,1.90
2022-12-23T09:00:14.048Z,2.20
2022-12-23T09:02:41.465Z,2.95
2022-12-23T09:07:41.778Z,3.33
2022-12-23T09:10:15.715Z,1.73
2022-12-23T09:12:42.887Z,3.72
2022-12-23T09:15:10.179Z,3.03
2022-12-23T09:17:43.705Z,2.33
2022-12-23T09:20:17.773Z,5.53
2022-12-23T09:22:51.812Z,1.30
2022-12-23T09:25:18.917Z,2.10
2022-12-23T09:27:46.000Z,2.30
2022-12-23T09:30:19.694Z,3.15
2022-12-23T09:32:46.846Z,4.13
2022-12-23T09:35:20.856Z,4.30
2022-12-23T09:37:47.959Z,2.08
2022-12-23T09:40:15.931Z,5.53
2022-12-23T09:42:54.691Z,2.80
2022-12-23T09:45:37.034Z,4.68
2022-12-23T09:48:17.692Z,4.40
2022-12-23T09:50:46.676Z,1.45
2022-12-23T09:53:22.822Z,3.08
2022-12-23T09:55:55.522Z,2.38
2022-12-23T09:58:44.708Z,2.83
2022-12-23T10:01:23.731Z,2.10
2022-12-23T10:04:06.761Z,4.72
2022-12-23T10:06:41.723Z,4.40
2022-12-23T10:09:16.829Z,3.10
2022-12-23T10:11:45.439Z,4.00
2022-12-23T10:14:24.863Z,2.38
2022-12-23T10:16:57.665Z,3.03
2022-12-23T10:19:51.833Z,2.03
2022-12-23T10:22:43.397Z,2.03
2022-12-23T10:25:25.864Z,3.42
2022-12-23T10:27:53.024Z,2.25
2022-12-23T10:30:51.651Z,4.45
2022-12-23T10:33:41.753Z,3.25
2022-12-23T10:36:38.796Z,3.80
2022-12-23T10:39:19.974Z,4.63
2022-12-23T10:42:13.742Z,2.53
2022-12-23T10:44:47.112Z,3.63
2022-12-23T10:47:39.708Z,2.42
2022-12-23T10:50:16.010Z,8.05
2022-12-23T10:52:51.869Z,2.03
2022-12-23T10:55:33.695Z,2.45
2022-12-23T10:58:13.765Z,2.78
2022-12-23T11:00:43.395Z,2.72
2022-12-23T11:03:23.861Z,2.40
2022-12-23T11:05:58.714Z,3.08
2022-12-23T11:08:27.235Z,1.85
2022-12-23T11:11:01.719Z,1.52
2022-12-23T11:13:35.467Z,1.42
2022-12-23T11:16:18.766Z,1.92
2022-12-23T11:19:02.804Z,4.05
2022-12-23T11:21:37.737Z,3.50
2022-12-23T11:24:10.907Z,4.25
2022-12-23T11:26:44.733Z,3.63
2022-12-23T11:29:13.340Z,3.47
2022-12-23T11:31:49.903Z,3.35
2022-12-23T11:34:19.269Z,2.45
2022-12-23T11:37:05.257Z,2.92
2022-12-23T11:39:35.676Z,1.88
2022-12-23T11:42:22.861Z,2.75
2022-12-23T11:44:51.353Z,5.75
2022-12-23T11:47:20.794Z,2.08
2022-12-23T11:50:17.728Z,1.77
2022-12-23T11:52:50.625Z,3.67
2022-12-23T11:55:31.751Z,2.95
2022-12-23T11:58:00.008Z,1.88
2022-12-23T12:00:36.893Z,2.17
2022-12-23T12:03:05.608Z,4.03
2022-12-23T12:05:35.986Z,2.92
2022-12-23T12:08:16.751Z,3.58
2022-12-23T12:10:50.733Z,5.80
2022-12-23T12:13:23.636Z,5.28
2022-12-23T12:16:02.870Z,4.00
2022-12-23T12:18:55.443Z,6.03
2022-12-23T12:21:35.864Z,5.13
2022-12-23T12:24:18.304Z,3.50
2022-12-23T12:26:57.886Z,7.40
2022-12-23T12:29:24.983Z,5.57
2022-12-23T12:31:53.793Z,3.17
2022-12-23T12:34:33.743Z,4.28
2022-12-23T12:37:21.744Z,2.97
2022-12-23T12:40:03.614Z,6.72
2022-12-23T12:42:40.742Z,3.15
2022-12-23T12:45:24.645Z,2.88
2022-12-23T12:48:12.770Z,5.72
2022-12-23T12:50:51.631Z,3.55
2022-12-23T12:53:26.744Z,5.68
2022-12-23T12:55:56.689Z,3.22
2022-12-23T12:58:31.724Z,3.78
2022-12-23T13:01:01.578Z,6.53
2022-12-23T13:03:40.769Z,4.10
2022-12-23T13:06:27.537Z,3.30
2022-12-23T13:09:11.002Z,3.88
2022-12-23T13:11:45.051Z,2.55
2022-12-23T13:14:40.896Z,3.53
2022-12-23T13:17:12.653Z,4.07
2022-12-23T13:20:07.992Z,2.70
2022-12-23T13:22:35.169Z,3.70
2022-12-23T13:25:06.358Z,8.57
2022-12-23T13:28:11.762Z,4.72
2022-12-23T13:30:43.289Z,2.00
2022-12-23T13:33:25.759Z,5.72
2022-12-23T13:35:52.830Z,6.15
2022-12-23T13:38:29.784Z,3.92
2022-12-23T13:41:15.462Z,3.38
2022-12-23T13:43:51.908Z,7.57
2022-12-23T13:46:36.440Z,3.63
2022-12-23T13:49:16.907Z,5.75
2022-12-23T13:51:53.992Z,2.80
2022-12-23T13:54:32.764Z,3.38
2022-12-23T13:57:14.299Z,6.03
2022-12-23T14:00:20.766Z,7.78
2022-12-23T14:03:06.786Z,3.85
2022-12-23T14:05:36.616Z,3.55
2022-12-23T14:08:25.754Z,4.85
2022-12-23T14:11:01.847Z,7.25
2022-12-23T14:13:49.900Z,3.53
2022-12-23T14:16:24.809Z,2.58
2022-12-23T14:19:28.783Z,5.70
2022-12-23T14:22:11.706Z,5.22
2022-12-23T14:25:10.771Z,5.15
2022-12-23T14:27:40.892Z,4.47
2022-12-23T14:30:44.895Z,3.72
2022-12-23T14:33:28.673Z,6.22
2022-12-23T14:36:20.790Z,6.40
2022-12-23T14:39:08.130Z,7.55
2022-12-23T14:42:05.457Z,6.05
2022-12-23T14:44:36.545Z,4.93
2022-12-23T14:47:40.870Z,11.43
2022-12-23T14:50:33.766Z,4.20
2022-12-23T14:53:02.428Z,7.22
2022-12-23T14:55:36.758Z,14.70
2022-12-23T14:58:30.520Z,21.77
2022-12-23T15:01:08.753Z,10.48
2022-12-23T15:03:40.751Z,8.93
2022-12-23T15:06:14.940Z,8.45
2022-12-23T15:08:42.783Z,11.77
2022-12-23T15:11:22.939Z,10.15
2022-12-23T15:13:52.032Z,13.77
2022-12-23T15:16:19.545Z,8.95
2022-12-23T15:19:03.775Z,10.07
2022-12-23T15:21:38.823Z,9.82
2022-12-23T15:24:12.939Z,10.77
2022-12-23T15:26:51.831Z,7.45
2022-12-23T15:29:33.913Z,4.45
2022-12-23T15:32:01.548Z,6.10
2022-12-23T15:34:31.151Z,4.82
2022-12-23T15:37:04.775Z,5.38
2022-12-23T15:39:36.387Z,6.30
2022-12-23T15:42:10.792Z,6.70
2022-12-23T15:44:39.779Z,6.82
2022-12-23T15:47:31.748Z,9.18
2022-12-23T15:49:59.680Z,7.80
2022-12-23T15:52:34.770Z,7.45
2022-12-23T15:55:11.275Z,10.10
2022-12-23T15:57:50.559Z,10.35
2022-12-23T16:00:22.329Z,4.82
2022-12-23T16:03:02.368Z,4.15
2022-12-23T16:05:31.639Z,5.10
2022-12-23T16:08:28.645Z,3.40
2022-12-23T16:10:59.225Z,3.50
2022-12-23T16:13:32.928Z,7.30
2022-12-23T16:16:31.191Z,5.97
2022-12-23T16:19:12.082Z,4.30
2022-12-23T16:21:45.868Z,7.03
2022-12-23T16:24:20.921Z,4.93
2022-12-23T16:26:48.104Z,5.70
2022-12-23T16:31:55.823Z,5.30
2022-12-23T16:34:26.397Z,16.98
2022-12-23T16:36:59.927Z,4.18
2022-12-23T16:39:27.025Z,8.77
2022-12-23T16:41:54.112Z,6.22
2022-12-23T16:44:27.823Z,4.45
2022-12-23T16:46:54.925Z,6.03
2022-12-23T16:49:33.477Z,3.95
2022-12-23T16:52:01.282Z,3.85
2022-12-23T16:54:34.814Z,2.95
2022-12-23T16:57:01.938Z,2.50
2022-12-23T16:59:29.068Z,7.68
2022-12-23T17:02:03.879Z,7.15
2022-12-23T17:04:31.202Z,5.85
2022-12-23T17:07:04.793Z,4.18
2022-12-23T17:09:31.871Z,4.95
2022-12-23T17:12:05.930Z,6.57
2022-12-23T17:14:33.014Z,9.88
2022-12-23T17:17:00.235Z,3.47
2022-12-23T17:22:10.190Z,5.22
2022-12-23T17:24:43.794Z,6.05
2022-12-23T17:27:14.941Z,3.05
2022-12-23T17:29:48.939Z,6.13
2022-12-23T17:32:17.370Z,3.90
2022-12-23T17:34:44.465Z,7.32
2022-12-23T17:37:21.950Z,4.93
2022-12-23T17:39:49.648Z,3.70
2022-12-23T17:42:23.336Z,4.07
2022-12-23T17:44:58.793Z,7.38
2022-12-23T17:47:32.802Z,7.35
2022-12-23T17:50:06.798Z,7.53
2022-12-23T17:52:40.950Z,11.68
2022-12-23T17:55:16.347Z,17.13
2022-12-23T17:57:49.910Z,9.75
2022-12-23T18:00:25.314Z,12.10
2022-12-23T18:03:12.941Z,9.27
2022-12-23T18:05:46.859Z,6.28
2022-12-23T18:08:20.791Z,8.68
2022-12-23T18:10:54.945Z,8.10
2022-12-23T18:13:22.212Z,8.63
2022-12-23T18:15:49.359Z,6.43
2022-12-23T18:18:31.321Z,5.85
2022-12-23T18:21:08.718Z,6.47
2022-12-23T18:23:43.945Z,8.73
2022-12-23T18:26:15.180Z,5.63
2022-12-23T18:28:42.871Z,4.63
2022-12-23T18:31:23.923Z,5.20
2022-12-23T18:33:58.860Z,7.60
2022-12-23T18:36:30.664Z,6.40
2022-12-23T18:38:58.203Z,3.90
2022-12-23T18:41:32.833Z,5.87
2022-12-23T18:43:59.938Z,4.27
2022-12-23T18:46:33.995Z,11.70
2022-12-23T18:49:01.183Z,12.03
2022-12-23T18:51:28.272Z,9.13
2022-12-23T18:54:01.821Z,6.03
2022-12-23T18:56:28.992Z,8.70
2022-12-23T18:59:02.848Z,6.22
2022-12-23T19:01:30.465Z,6.23
2022-12-23T19:03:57.619Z,5.40
2022-12-23T19:06:31.817Z,6.88
2022-12-23T19:08:58.959Z,8.97
2022-12-23T19:11:32.816Z,7.88
2022-12-23T19:14:00.056Z,7.97
2022-12-23T19:19:07.867Z,4.50
2022-12-23T19:21:47.855Z,5.57
2022-12-23T19:24:14.947Z,4.10
2022-12-23T19:26:42.086Z,5.93
2022-12-23T19:29:16.061Z,6.68
2022-12-23T19:31:43.181Z,5.37
2022-12-23T19:34:15.083Z,4.70
2022-12-23T19:36:49.861Z,5.63
2022-12-23T19:39:18.216Z,6.40
2022-12-23T19:41:51.968Z,6.33
2022-12-23T19:44:19.127Z,5.60
2022-12-23T19:46:46.301Z,5.30
2022-12-23T19:49:20.547Z,9.48
2022-12-23T19:51:47.916Z,6.47
2022-12-23T19:56:49.072Z,6.00
2022-12-23T19:59:16.187Z,5.93
2022-12-23T20:01:43.427Z,7.30
2022-12-23T20:06:44.458Z,7.07
2022-12-23T20:09:12.633Z,4.63
2022-12-23T20:11:47.960Z,6.80
2022-12-23T20:14:16.379Z,4.13
2022-12-23T20:16:43.656Z,6.30
2022-12-23T20:21:50.895Z,5.87
2022-12-23T20:24:24.865Z,5.73
2022-12-23T20:26:52.079Z,7.70
2022-12-23T20:31:52.841Z,10.40
2022-12-23T20:34:19.987Z,7.60
2022-12-23T20:36:53.958Z,6.32
2022-12-23T20:39:21.245Z,9.63
2022-12-23T20:44:34.564Z,9.93
2022-12-23T20:47:03.145Z,14.40
2022-12-23T20:52:03.999Z,7.73
2022-12-23T20:57:07.835Z,6.17
2022-12-23T20:59:34.974Z,4.87
2022-12-23T21:02:09.051Z,5.47
2022-12-23T21:04:36.223Z,11.57
2022-12-23T21:07:03.351Z,7.70
2022-12-23T21:09:36.842Z,3.83
2022-12-23T21:12:04.159Z,7.37
2022-12-23T21:17:05.180Z,6.50
2022-12-23T21:22:14.826Z,5.57
2022-12-23T21:24:41.918Z,4.00
2022-12-23T21:27:15.839Z,11.27
2022-12-23T21:29:42.975Z,5.83
2022-12-23T21:32:16.961Z,5.70
2022-12-23T21:34:44.062Z,5.73
2022-12-23T21:37:11.148Z,6.60
2022-12-23T21:39:44.850Z,4.70
2022-12-23T21:42:11.951Z,6.03
2022-12-23T21:44:45.980Z,5.55
2022-12-23T21:47:13.129Z,7.53
2022-12-23T21:52:15.879Z,5.77
2022-12-23T21:54:43.269Z,6.50
2022-12-23T21:57:10.412Z,4.17
2022-12-23T21:59:43.847Z,3.85
2022-12-23T22:02:16.364Z,6.17
2022-12-23T22:04:49.991Z,6.93
2022-12-23T22:07:17.061Z,4.73
2022-12-23T22:09:44.146Z,7.03
2022-12-23T22:12:17.845Z,5.25
2022-12-23T22:14:44.924Z,6.83
2022-12-23T22:17:18.977Z,4.00
2022-12-23T22:19:52.887Z,6.10
2022-12-23T22:22:26.980Z,6.17
2022-12-23T22:24:54.059Z,4.37
2022-12-23T22:27:21.207Z,4.55
2022-12-23T22:29:54.869Z,8.85
2022-12-23T22:32:21.974Z,5.43
2022-12-23T22:34:49.065Z,10.45
2022-12-23T22:37:22.834Z,3.63
2022-12-23T22:39:57.139Z,6.13
2022-12-23T22:42:24.222Z,4.07
2022-12-23T22:44:51.301Z,7.82
2022-12-23T22:47:24.846Z,4.60
2022-12-23T22:49:51.929Z,8.10
2022-12-23T22:52:25.986Z,4.10
2022-12-23T22:54:53.056Z,7.93
2022-12-23T22:57:20.130Z,8.55
2022-12-23T22:59:53.847Z,8.95
2022-12-23T23:02:21.015Z,43.73
2022-12-23T23:04:55.014Z,12.60
2022-12-23T23:07:22.120Z,17.60
2022-12-23T23:09:49.248Z,17.90
2022-12-23T23:12:22.844Z,23.23
2022-12-23T23:14:53.047Z,58.67
2022-12-23T23:17:28.000Z,96.27
2022-12-23T23:20:01.805Z,132.97
2022-12-23T23:22:35.974Z,153.40
2022-12-23T23:25:03.114Z,136.83
2022-12-23T23:27:30.209Z,225.73
2022-12-23T23:30:03.852Z,165.23
2022-12-23T23:32:31.028Z,132.75
2022-12-23T23:35:10.562Z,166.05
2022-12-23T23:37:38.052Z,96.87
2022-12-23T23:40:12.996Z,46.42
2022-12-23T23:42:40.100Z,92.80
2022-12-23T23:45:07.491Z,75.03
2022-12-23T23:50:08.457Z,25.50
2022-12-23T23:52:35.599Z,46.90
2022-12-23T23:55:09.847Z,82.20
2022-12-23T23:57:36.936Z,23.75
